< < Back
Terminal Aerodrome Forecast


Current Version              Previous Versions:   1  2  3  4  5  6  7  8  9  

Terminal Aerodrome Forecast

695
FTUS44 KBMX 232100 AAA
TAFMGM
TAF AMD
KMGM 232102Z 2321/2418 19010G18KT P6SM SCT110
     FM232200 20010KT P6SM BKN025 BKN035
     FM240500 20007KT 4SM BR OVC015
     FM241400 25012KT P6SM BKN020=

Latest METAR

159
SAUS80 KWBC 240500
MTRMGM
METAR KMGM 240453Z 20009KT 10SM FEW015 18/16 A2974 RMK AO2 SLP070
T01780156 $


USA.gov is the U.S. government's official web portal to all federal, state and local government web resources and services.